Ithaca, NY

9:13 AM EST on December 29, 2014 (GMT -0500)
Penn Yan | Change Station
CLOSE
Current Station
Airport
Location: Penn Yan,
Elevation: 902 ft
Nearby Weather Stations

Elev 902 ft 42.64 °N, 77.05 °W | Updated 20 minutes ago

Partly Cloudy
Partly Cloudy
30 °F
Feels Like 22 °F
N
8
Wind Variable Wind from West

Today
High -- | Low -- °F
--% Chance of Precip.
Yesterday
High -- | Low -- °F
Precip. -- in
7:35 AM 4:41 PM
First Quarter, 59% visible
Pressure 30.22 in
Visibility 7.0 miles
Clouds Scattered Clouds 2200 ft
Overcast 2900 ft
Windchill 22 °F
Dew Point 22 °F
Humidity 72%
Rainfall 0.00 in
Snow Depth Not available.
UV 0 out of 12
Pollen .10 out of 12
Air Quality Not available.
Flu Activity Not available.
METAR KPEO 291353Z AUTO 26007KT 7SM SCT022 OVC029 M01/M06 A3019 RMK AO2 SNB33E47 SLP233 P0000 T10111056

More Conditions Fewer Conditions

Pressure 30.22 in
Visibility 7.0 miles
Clouds Scattered Clouds 2200 ft
Overcast 2900 ft
Windchill 22 °F
Dew Point 22 °F
Humidity 72%
Rainfall 0.00 in
Snow Depth Not available.
UV 0 out of 12
Pollen .10 out of 12
Air Quality Not available.
Flu Activity Not available.
METAR KPEO 291353Z AUTO 26007KT 7SM SCT022 OVC029 M01/M06 A3019 RMK AO2 SNB33E47 SLP233 P0000 T10111056

More Conditions Fewer Conditions

10-Day Weather Forecast

Almanac

Astronomy

Dec. 29, 2014 Rise Set
Actual Time
Civil Twilight
Nautical Twilight
Astronomical Twilight
Moon
Length of Visible Light
Length of Day
Tomorrow will be .
, % of the Moon is Illuminated

Today's Extremes

State Highs State Lows

Community

WunderPhotos

Upload Photos

1,781,587 photos uploaded!

WunderBlogs® & News

Nearby

Air Quality

  Air Quality AQ Index Pollutant
Not available.

Snow Depth

Station Depth Elevation

Earthquake Activity

City Distance Mag. Time & Date
Minimum magnitude displayed is 2.5.

Coastal Water Temperatures

Place Temperature

Nearby Weather Stations